Time;durP1;ratioP1;P1;durP2;ratioP2;P2;SDS_P1;SDS_P2;PMS_P1;PMS_P2;Temp;Humidity;BMP_temperature;BMP_pressure;BME280_temperature;BME280_humidity;BME280_pressure;Samples;Min_cycle;Max_cycle;Signal;HPM_P1;HPM_P2
2022/10/15 00:02:53;;;;;;;;;;;;;;;;;;;;;
2022/10/15 00:05:22;;;;;;;102.55;49.15;;;12.30;99.90;;;;;;4860088;29;20049;-96
2022/10/15 00:07:51;;;;;;;110.75;49.35;;;12.30;99.90;;;;;;4845227;29;20044;-95
2022/10/15 00:10:35;;;;;;;93.82;45.20;;;12.20;99.90;;;;;;4844852;29;20097;-96
2022/10/15 00:13:19;;;;;;;91.18;45.35;;;12.30;99.90;;;;;;4845724;29;20555;-96
2022/10/15 00:16:05;;;;;;;;;;;;;;;;;;;;;
2022/10/15 00:18:42;;;;;;;94.57;44.55;;;12.30;99.90;;;;;;4860442;29;20053;-95
2022/10/15 00:21:20;;;;;;;101.00;46.15;;;12.10;99.90;;;;;;4844082;29;20084;-96
2022/10/15 00:23:53;;;;;;;93.85;45.08;;;12.20;99.90;;;;;;4844869;29;20061;-96
2022/10/15 00:26:29;;;;;;;94.72;43.22;;;12.00;99.90;;;;;;4845418;29;20401;-96
2022/10/15 00:29:03;;;;;;;97.78;44.70;;;12.20;99.90;;;;;;4846819;29;20048;-95
2022/10/15 00:31:30;;;;;;;101.10;44.88;;;12.10;99.90;;;;;;4847772;29;20049;-96
2022/10/15 00:34:05;;;;;;;107.80;46.90;;;12.20;99.90;;;;;;4848529;29;20053;-96
2022/10/15 00:36:37;;;;;;;104.20;47.63;;;12.30;99.90;;;;;;4847957;29;20098;-96
2022/10/15 00:39:08;;;;;;;106.07;47.83;;;12.60;99.90;;;;;;4848187;29;20049;-95
2022/10/15 00:41:40;;;;;;;101.10;49.03;;;12.20;99.90;;;;;;4847916;29;20073;-95
2022/10/15 00:44:28;;;;;;;101.35;48.03;;;11.90;99.90;;;;;;4847272;29;20080;-96
2022/10/15 00:47:04;;;;;;;103.65;50.20;;;12.30;99.90;;;;;;4863062;29;20057;-95
2022/10/15 00:49:34;;;;;;;103.63;48.13;;;12.20;99.90;;;;;;4847480;29;20088;-96
2022/10/15 00:52:05;;;;;;;112.45;49.67;;;12.00;99.90;;;;;;4847643;29;20045;-95
2022/10/15 00:54:38;;;;;;;102.70;46.88;;;12.00;99.90;;;;;;4847849;29;20136;-96
2022/10/15 00:57:06;;;;;;;99.35;48.58;;;12.00;99.90;;;;;;4847106;29;20059;-96
2022/10/15 00:59:35;;;;;;;100.07;48.53;;;12.00;99.90;;;;;;4848389;29;20201;-95
2022/10/15 01:02:02;;;;;;;98.30;48.90;;;12.20;99.90;;;;;;4848034;29;20593;-95
2022/10/15 01:04:34;;;;;;;104.90;50.00;;;12.00;99.90;;;;;;4847486;29;20048;-96
2022/10/15 01:07:14;;;;;;;100.25;50.28;;;12.20;99.90;;;;;;4847258;29;20045;-96
2022/10/15 01:09:41;;;;;;;109.20;48.95;;;12.00;99.90;;;;;;4848879;29;20048;-95
2022/10/15 01:12:25;;;;;;;101.47;47.95;;;12.30;99.90;;;;;;4848780;29;20148;-96
2022/10/15 01:15:07;;;;;;;99.45;46.20;;;12.20;99.90;;;;;;4848189;29;20045;-95
2022/10/15 01:17:42;;;;;;;92.25;47.35;;;12.20;99.90;;;;;;4847491;29;20105;-96
2022/10/15 01:20:36;;;;;;;92.30;46.92;;;12.00;99.90;;;;;;4846018;29;20057;-96
2022/10/15 01:23:23;;;;;;;95.53;46.40;;;12.20;99.90;;;;;;4848091;29;20453;-95
2022/10/15 01:26:17;;;;;;;88.53;45.13;;;12.00;99.90;;;;;;4848425;29;20105;-96
2022/10/15 01:29:22;;;;;;;93.90;47.42;;;12.00;99.90;;;;;;4847785;29;20044;-96
2022/10/15 01:32:05;;;;;;;91.00;44.50;;;12.20;99.90;;;;;;4846473;29;20132;-96
2022/10/15 01:34:49;;;;;;;89.40;43.80;;;12.10;99.90;;;;;;4847493;29;20060;-96
2022/10/15 01:37:40;;;;;;;98.75;45.03;;;12.10;99.90;;;;;;4847825;29;20302;-96
2022/10/15 01:40:16;;;;;;;88.03;44.30;;;12.00;99.90;;;;;;4846080;29;20658;-96
2022/10/15 01:42:58;;;;;;;84.75;43.38;;;12.20;99.90;;;;;;4846776;29;20049;-95
2022/10/15 01:45:43;;;;;;;89.63;43.63;;;12.00;99.90;;;;;;4847196;29;20053;-96
2022/10/15 01:48:42;;;;;;;97.05;44.15;;;12.00;99.90;;;;;;4847066;29;20481;-95
2022/10/15 01:51:12;;;;;;;85.72;45.13;;;12.00;99.90;;;;;;4844481;29;20143;-96
2022/10/15 01:53:45;;;;;;;88.70;42.63;;;12.10;99.90;;;;;;4847066;29;20053;-96
2022/10/15 01:56:23;;;;;;;84.90;43.58;;;11.90;99.90;;;;;;4848615;29;20453;-96
2022/10/15 01:58:54;;;;;;;78.97;41.65;;;12.00;99.90;;;;;;4846520;29;20067;-96
2022/10/15 02:01:33;;;;;;;84.15;41.92;;;12.20;99.90;;;;;;4846962;29;20499;-95
2022/10/15 02:04:08;;;;;;;87.85;43.90;;;12.20;99.90;;;;;;4846652;29;20073;-95
2022/10/15 02:06:44;;;;;;;82.93;42.47;;;12.00;99.90;;;;;;4847213;29;20055;-95
2022/10/15 02:09:48;;;;;;;79.85;44.60;;;12.10;99.90;;;;;;4846441;29;20591;-96
2022/10/15 02:12:34;;;;;;;82.00;43.35;;;12.00;99.90;;;;;;4839385;29;20488;-95
2022/10/15 02:15:26;;;;;;;85.28;42.00;;;12.10;99.90;;;;;;4845668;29;20059;-95
2022/10/15 02:18:18;;;;;;;76.07;42.00;;;12.00;99.90;;;;;;4846495;29;20056;-96
2022/10/15 02:20:58;;;;;;;85.13;41.85;;;12.20;99.90;;;;;;4846230;29;20525;-96
2022/10/15 02:23:32;;;;;;;79.00;41.88;;;12.10;99.90;;;;;;4846828;29;20061;-96
2022/10/15 02:25:59;;;;;;;77.03;40.88;;;11.90;99.90;;;;;;4846253;29;20607;-96
2022/10/15 02:28:28;;;;;;;84.63;42.47;;;12.20;99.90;;;;;;4846409;29;20045;-96
2022/10/15 02:30:58;;;;;;;72.35;40.83;;;11.90;99.90;;;;;;4846396;29;20060;-96
2022/10/15 02:33:26;;;;;;;82.25;42.08;;;12.40;99.90;;;;;;4846092;29;20402;-96
2022/10/15 02:35:55;;;;;;;84.82;43.75;;;11.90;99.90;;;;;;4846211;29;20566;-95
2022/10/15 02:38:24;;;;;;;82.63;41.28;;;11.90;99.90;;;;;;4846850;29;20057;-96
2022/10/15 02:40:50;;;;;;;69.32;39.13;;;11.90;99.90;;;;;;4861196;29;20052;-96
2022/10/15 02:43:19;;;;;;;76.63;41.45;;;12.00;99.90;;;;;;4845969;29;20077;-95
2022/10/15 02:45:45;;;;;;;79.78;40.95;;;11.90;99.90;;;;;;4846010;29;20104;-94
2022/10/15 02:48:23;;;;;;;77.95;42.03;;;11.90;99.90;;;;;;4861047;29;20081;-96
2022/10/15 02:50:55;;;;;;;80.30;41.25;;;12.20;99.90;;;;;;4860023;29;20053;-96
2022/10/15 02:53:21;;;;;;;76.20;41.03;;;11.90;99.90;;;;;;4861127;29;20049;-95
2022/10/15 02:55:50;;;;;;;69.47;41.20;;;11.90;99.90;;;;;;4860802;29;20056;-96
2022/10/15 02:58:16;;;;;;;76.97;42.50;;;11.90;99.90;;;;;;4845810;29;20135;-95
2022/10/15 03:00:47;;;;;;;69.43;40.42;;;12.00;99.90;;;;;;4861698;29;20051;-96
2022/10/15 03:03:13;;;;;;;75.65;41.55;;;12.20;99.90;;;;;;4842458;29;20053;-95
2022/10/15 03:05:42;;;;;;;79.57;40.88;;;11.90;99.90;;;;;;4843711;29;20056;-95
2022/10/15 03:08:13;;;;;;;70.85;40.13;;;11.90;99.90;;;;;;4845176;29;20529;-96
2022/10/15 03:10:41;;;;;;;82.65;40.22;;;11.60;99.90;;;;;;4842563;29;20121;-96
2022/10/15 03:13:07;;;;;;;79.43;41.42;;;11.90;99.90;;;;;;4842969;29;20440;-96
2022/10/15 03:16:20;;;;;;;72.90;40.03;;;11.80;99.90;;;;;;4842936;29;20049;-96
2022/10/15 03:18:21;;;;;;;74.13;40.35;;;11.80;99.90;;;;;;4839528;29;20084;-96
2022/10/15 03:20:55;;;;;;;73.95;40.25;;;11.70;99.90;;;;;;4842457;29;20133;-95
2022/10/15 03:23:21;;;;;;;75.90;40.42;;;11.70;99.90;;;;;;4842758;29;20057;-95
2022/10/15 03:25:49;;;;;;;74.85;41.83;;;11.80;99.90;;;;;;4827443;29;20091;-95
2022/10/15 03:28:15;;;;;;;75.28;41.88;;;11.80;99.90;;;;;;4843687;29;20376;-95
2022/10/15 03:30:45;;;;;;;78.10;42.63;;;11.80;99.90;;;;;;4842982;29;20082;-95
2022/10/15 03:33:14;;;;;;;82.20;42.55;;;11.80;99.90;;;;;;4842772;29;20565;-96
2022/10/15 03:35:40;;;;;;;73.10;39.72;;;12.00;99.90;;;;;;4842389;29;20116;-95
2022/10/15 03:38:06;;;;;;;77.25;41.22;;;11.90;99.90;;;;;;4842140;29;20064;-96
2022/10/15 03:40:33;;;;;;;69.93;39.90;;;11.90;99.90;;;;;;4842517;29;20109;-96
2022/10/15 03:42:59;;;;;;;70.93;40.35;;;12.00;99.90;;;;;;4842259;29;20057;-95
2022/10/15 03:45:27;;;;;;;69.57;39.25;;;11.90;99.90;;;;;;4842387;29;20068;-96
2022/10/15 03:47:55;;;;;;;69.25;39.22;;;11.90;99.90;;;;;;4841928;29;20046;-95
2022/10/15 03:50:20;;;;;;;70.97;39.42;;;11.90;99.90;;;;;;4843739;29;20077;-96
2022/10/15 03:52:55;;;;;;;77.60;39.35;;;11.80;99.90;;;;;;4844187;29;20401;-96
2022/10/15 03:55:23;;;;;;;66.72;38.03;;;12.10;99.90;;;;;;4842796;29;20049;-96
2022/10/15 03:57:49;;;;;;;71.32;38.25;;;12.00;99.90;;;;;;4842564;29;20093;-96
2022/10/15 04:00:21;;;;;;;75.35;39.38;;;12.00;99.90;;;;;;4842122;29;20089;-95
2022/10/15 04:02:46;;;;;;;70.38;39.10;;;12.00;99.90;;;;;;4844100;29;20053;-95
2022/10/15 04:05:12;;;;;;;65.50;36.58;;;11.70;99.90;;;;;;4845458;29;20042;-95
2022/10/15 04:07:38;;;;;;;68.68;39.20;;;11.70;99.90;;;;;;4845863;29;20049;-95
2022/10/15 04:10:04;;;;;;;72.53;39.22;;;11.90;99.90;;;;;;4846031;29;20490;-95
2022/10/15 04:12:32;;;;;;;75.10;40.05;;;12.00;99.90;;;;;;4845391;29;20045;-96
2022/10/15 04:14:58;;;;;;;75.53;39.72;;;12.00;99.90;;;;;;4845456;29;20513;-96
2022/10/15 04:17:26;;;;;;;73.75;40.25;;;12.00;99.90;;;;;;4845745;29;20085;-96
2022/10/15 04:19:59;;;;;;;77.55;41.08;;;12.10;99.90;;;;;;4844917;29;20049;-95
2022/10/15 04:22:27;;;;;;;86.40;41.47;;;12.00;99.90;;;;;;4845487;29;20129;-95
2022/10/15 04:24:53;;;;;;;75.53;41.65;;;11.60;99.90;;;;;;4845724;29;20108;-95
2022/10/15 04:27:21;;;;;;;81.35;40.80;;;12.10;99.90;;;;;;4845495;29;20052;-96
2022/10/15 04:29:48;;;;;;;82.40;41.42;;;12.00;99.90;;;;;;4852194;29;20053;-96
2022/10/15 04:32:16;;;;;;;84.18;41.92;;;12.10;99.90;;;;;;4848799;29;20056;-96
2022/10/15 04:34:52;;;;;;;;;;;;;;;;;;;;;
2022/10/15 04:38:19;;;;;;;100.55;44.80;;;12.10;99.90;;;;;;4878326;29;20045;-95
2022/10/15 04:40:45;;;;;;;93.50;44.33;;;12.10;99.90;;;;;;4861764;29;20143;-95
2022/10/15 04:43:31;;;;;;;92.10;44.90;;;11.90;99.90;;;;;;4837794;29;20056;-96
2022/10/15 04:46:27;;;;;;;92.10;44.33;;;11.80;99.90;;;;;;4879476;29;20506;-95
2022/10/15 04:48:58;;;;;;;92.10;42.55;;;12.00;99.90;;;;;;4863223;29;20057;-96
2022/10/15 04:51:45;;;;;;;84.57;42.30;;;11.90;99.90;;;;;;4848024;29;20053;-96
2022/10/15 04:55:04;;;;;;;;;;;;;;;;;;;;;
2022/10/15 04:57:47;;;;;;;86.63;41.63;;;11.70;99.90;;;;;;4834582;29;20068;-94
2022/10/15 05:00:30;;;;;;;92.55;44.50;;;11.80;99.90;;;;;;4847503;29;20053;-96
2022/10/15 05:03:15;;;;;;;96.05;45.15;;;11.90;99.90;;;;;;4862337;29;20085;-96
2022/10/15 05:06:46;;;;;;;93.38;44.40;;;11.80;99.90;;;;;;4862365;29;20112;-95
2022/10/15 05:09:10;;;;;;;88.57;42.67;;;11.60;99.90;;;;;;4835217;29;20053;-96
2022/10/15 05:11:42;;;;;;;96.47;43.45;;;11.90;99.90;;;;;;4856734;29;20588;-96
2022/10/15 05:14:08;;;;;;;88.22;42.72;;;11.80;99.90;;;;;;4847237;29;20051;-95
2022/10/15 05:16:39;;;;;;;94.05;44.38;;;11.60;99.90;;;;;;4862663;29;20059;-96
2022/10/15 05:19:28;;;;;;;;;;;;;;;;;;;;;
2022/10/15 05:23:12;;;;;;;88.35;44.65;;;11.70;99.90;;;;;;4878709;29;20045;-95
2022/10/15 05:25:22;;;;;;;93.13;44.55;;;11.60;99.90;;;;;;4855832;29;20088;-96
2022/10/15 05:28:09;;;;;;;87.93;43.92;;;11.60;99.90;;;;;;4847099;29;20417;-95
2022/10/15 05:30:40;;;;;;;88.20;44.55;;;11.70;99.90;;;;;;4847073;29;20076;-95
2022/10/15 05:33:32;;;;;;;90.32;45.45;;;11.80;99.90;;;;;;4846946;29;20056;-96
2022/10/15 05:36:17;;;;;;;86.53;45.85;;;11.80;99.90;;;;;;4847105;29;20048;-95
2022/10/15 05:38:56;;;;;;;95.50;47.65;;;11.60;99.90;;;;;;4842851;29;20053;-95
2022/10/15 05:41:38;;;;;;;105.13;47.67;;;11.60;99.90;;;;;;4863217;29;20052;-95
2022/10/15 05:44:06;;;;;;;93.32;46.55;;;11.50;99.90;;;;;;4846852;29;20553;-95
2022/10/15 05:46:38;;;;;;;112.28;50.55;;;11.70;99.90;;;;;;4847229;29;20049;-96
2022/10/15 05:49:13;;;;;;;107.20;50.45;;;11.80;99.90;;;;;;4847525;29;20508;-95
2022/10/15 05:51:48;;;;;;;101.40;50.45;;;11.40;99.90;;;;;;4848128;29;20063;-96
2022/10/15 05:54:29;;;;;;;;;;;;;;;;;;;;;
2022/10/15 05:56:59;;;;;;;109.03;52.28;;;11.70;99.90;;;;;;4877210;29;20054;-96
2022/10/15 05:59:30;;;;;;;108.57;51.28;;;11.70;99.90;;;;;;4847353;29;20056;-96
2022/10/15 06:02:16;;;;;;;102.25;50.80;;;11.80;99.90;;;;;;4848037;29;20463;-96
2022/10/15 06:04:55;;;;;;;;;;;;;;;;;;;;;
2022/10/15 06:07:31;;;;;;;105.68;50.63;;;11.60;99.90;;;;;;4876576;29;20112;-95
2022/10/15 06:10:06;;;;;;;126.07;54.30;;;11.90;99.90;;;;;;4846578;29;20060;-96
2022/10/15 06:12:37;;;;;;;111.90;51.70;;;11.70;99.90;;;;;;4847306;29;20056;-96
2022/10/15 06:15:21;;;;;;;111.40;52.83;;;11.90;99.90;;;;;;4848856;29;20135;-96
2022/10/15 06:17:54;;;;;;;121.25;53.10;;;12.60;99.90;;;;;;4846272;29;20159;-95
2022/10/15 06:20:26;;;;;;;115.25;53.53;;;11.80;99.90;;;;;;4845936;29;20108;-95
2022/10/15 06:23:00;;;;;;;115.15;53.95;;;11.20;99.90;;;;;;4847436;29;20052;-94
2022/10/15 06:25:34;;;;;;;120.00;53.80;;;11.70;99.90;;;;;;4847738;29;20049;-95
2022/10/15 06:28:08;;;;;;;120.65;54.40;;;11.60;99.90;;;;;;4918754;23;20521;-95
2022/10/15 06:31:05;;;;;;;113.05;54.13;;;11.70;99.90;;;;;;4921792;23;20056;-94
2022/10/15 06:34:21;;;;;;;117.38;52.85;;;12.00;99.90;;;;;;4896465;29;20058;-96
2022/10/15 07:35:32;;;;;;;103.47;51.23;;;12.50;99.90;;;;;;4930487;23;20345;-91
2022/10/15 07:46:27;;;;;;;92.55;48.90;;;12.40;99.90;;;;;;5715400;23;20064;-94
2022/10/15 07:49:18;;;;;;;92.43;48.10;;;12.60;99.90;;;;;;4900069;29;20060;-94
2022/10/15 07:54:38;;;;;;;84.32;47.13;;;12.40;99.90;;;;;;4901832;23;20067;-96
2022/10/15 07:57:05;;;;;;;91.95;48.60;;;12.80;99.90;;;;;;4877728;29;20057;-95
2022/10/15 07:59:34;;;;;;;90.07;48.05;;;12.80;99.90;;;;;;4880398;29;20052;-94
2022/10/15 08:02:00;;;;;;;89.63;46.58;;;12.60;99.90;;;;;;4881699;29;20408;-94
2022/10/15 08:04:26;;;;;;;85.18;45.47;;;12.20;99.90;;;;;;4881860;29;20052;-92
2022/10/15 08:06:52;;;;;;;75.80;43.45;;;12.70;99.90;;;;;;4882086;29;20398;-93
2022/10/15 08:09:18;;;;;;;83.07;44.65;;;12.80;99.90;;;;;;4882188;29;20059;-94
2022/10/15 08:11:44;;;;;;;77.40;43.25;;;13.10;99.90;;;;;;4882211;29;20618;-93
2022/10/15 08:14:10;;;;;;;78.40;43.92;;;12.90;99.90;;;;;;4882026;29;20044;-91
2022/10/15 08:16:35;;;;;;;77.32;44.30;;;12.90;99.90;;;;;;4881276;29;20051;-94
2022/10/15 08:19:01;;;;;;;70.65;41.90;;;13.20;99.90;;;;;;4871676;29;20056;-93
2022/10/15 08:21:27;;;;;;;80.40;44.50;;;13.00;99.90;;;;;;4869991;29;20048;-94
2022/10/15 08:23:53;;;;;;;68.50;41.42;;;13.20;99.90;;;;;;4882128;29;20041;-93
2022/10/15 08:26:18;;;;;;;68.10;41.42;;;13.20;99.90;;;;;;4871939;29;20049;-94
2022/10/15 08:28:44;;;;;;;68.47;40.80;;;13.30;99.90;;;;;;4867580;29;20421;-93
2022/10/15 08:31:10;;;;;;;69.60;40.10;;;13.30;99.90;;;;;;4882131;29;20049;-93
2022/10/15 08:33:45;;;;;;;64.80;38.35;;;13.60;99.90;;;;;;4884125;29;20076;-93
2022/10/15 08:36:11;;;;;;;70.45;40.67;;;13.30;99.90;;;;;;4881615;29;20060;-94
2022/10/15 08:38:36;;;;;;;70.07;40.70;;;13.30;99.90;;;;;;4881087;29;20045;-94
2022/10/15 08:41:13;;;;;;;65.45;38.78;;;13.40;99.90;;;;;;4881159;29;20083;-93
2022/10/15 08:43:42;;;;;;;68.75;40.05;;;13.20;99.90;;;;;;4872700;29;20064;-93
2022/10/15 08:46:43;;;;;;;59.42;38.60;;;13.60;99.90;;;;;;4869461;29;20096;-94
2022/10/15 08:49:20;;;;;;;59.85;36.88;;;13.50;99.90;;;;;;4876284;29;20045;-92
2022/10/15 08:51:52;;;;;;;65.32;38.10;;;13.60;99.90;;;;;;4862100;29;20060;-92
2022/10/15 08:54:18;;;;;;;55.53;35.90;;;13.40;99.90;;;;;;4867805;29;20044;-93
2022/10/15 08:56:49;;;;;;;56.80;36.97;;;13.60;99.90;;;;;;4869003;29;20057;-92
2022/10/15 08:59:26;;;;;;;53.85;35.15;;;13.90;99.90;;;;;;4862179;29;20049;-92
2022/10/15 09:01:59;;;;;;;57.38;37.70;;;14.00;99.90;;;;;;4862108;29;20053;-92
2022/10/15 09:04:35;;;;;;;62.88;38.65;;;14.00;99.90;;;;;;4862638;29;20052;-92
2022/10/15 09:07:09;;;;;;;56.85;36.38;;;14.10;99.90;;;;;;4861621;29;20105;-92
2022/10/15 09:09:53;;;;;;;58.28;36.72;;;13.90;99.90;;;;;;4862952;29;20437;-92
2022/10/15 09:12:20;;;;;;;61.05;38.95;;;14.00;99.90;;;;;;4862645;29;20080;-91
2022/10/15 09:14:50;;;;;;;55.95;37.42;;;14.10;99.90;;;;;;4862262;29;20040;-91
2022/10/15 09:17:25;;;;;;;53.78;34.47;;;14.30;99.90;;;;;;4862370;29;20117;-91
2022/10/15 09:19:55;;;;;;;47.22;31.50;;;14.10;99.90;;;;;;4862157;29;20522;-92
2022/10/15 09:22:26;;;;;;;46.45;32.85;;;14.20;99.90;;;;;;4862474;29;20052;-91
2022/10/15 09:24:52;;;;;;;48.40;33.42;;;14.30;99.90;;;;;;4862110;29;20060;-90
2022/10/15 09:27:35;;;;;;;46.45;33.20;;;14.20;99.90;;;;;;4866939;29;20080;-91
2022/10/15 09:30:32;;;;;;;44.47;31.83;;;14.30;99.90;;;;;;4861962;29;20069;-90
2022/10/15 09:33:02;;;;;;;42.25;29.88;;;14.30;99.90;;;;;;4862094;29;20092;-91
2022/10/15 09:35:39;;;;;;;48.08;30.55;;;14.40;99.90;;;;;;4861606;29;20049;-91
2022/10/15 09:38:15;;;;;;;42.30;29.05;;;14.40;99.90;;;;;;4861772;29;20060;-91
2022/10/15 09:40:54;;;;;;;47.58;31.13;;;14.20;99.90;;;;;;4861902;29;20426;-90
2022/10/15 09:43:30;;;;;;;44.30;31.23;;;14.10;99.90;;;;;;4867107;29;20049;-90
2022/10/15 09:45:56;;;;;;;42.72;30.33;;;14.10;99.90;;;;;;4861584;29;20076;-90
2022/10/15 09:48:24;;;;;;;44.97;30.52;;;14.20;99.90;;;;;;4861429;29;20056;-89
2022/10/15 09:50:57;;;;;;;43.03;28.55;;;14.00;99.90;;;;;;4861186;29;20041;-90
2022/10/15 09:53:41;;;;;;;45.35;28.73;;;14.00;99.90;;;;;;4861877;29;20455;-90
2022/10/15 09:56:18;;;;;;;44.00;28.33;;;13.90;99.90;;;;;;4845637;29;20053;-90
2022/10/15 09:58:52;;;;;;;41.35;28.27;;;13.80;99.90;;;;;;4861057;29;20140;-92
2022/10/15 10:01:21;;;;;;;44.05;29.05;;;13.90;99.90;;;;;;4860975;29;20056;-89
2022/10/15 10:04:12;;;;;;;43.95;29.13;;;13.80;99.90;;;;;;4861040;29;20104;-90
2022/10/15 10:06:48;;;;;;;46.42;29.40;;;13.80;99.90;;;;;;4864774;29;20116;-88
2022/10/15 10:09:19;;;;;;;46.72;29.48;;;14.40;99.90;;;;;;4858484;29;20049;-83
2022/10/15 10:11:52;;;;;;;46.88;29.15;;;13.70;99.90;;;;;;4857813;29;20052;-83
2022/10/15 10:14:28;;;;;;;47.55;30.40;;;13.70;99.90;;;;;;4858691;29;20055;-86
2022/10/15 10:17:16;;;;;;;47.20;30.90;;;13.70;99.90;;;;;;4859123;29;20069;-85
2022/10/15 10:19:44;;;;;;;50.95;32.33;;;13.60;99.90;;;;;;4878100;29;20051;-86
2022/10/15 10:22:14;;;;;;;51.60;30.73;;;13.70;99.90;;;;;;4895238;29;20080;-84
2022/10/15 10:24:45;;;;;;;55.40;31.90;;;13.60;99.90;;;;;;4895854;29;20437;-86
2022/10/15 10:27:21;;;;;;;51.92;30.13;;;13.70;99.90;;;;;;4879917;29;20178;-86
2022/10/15 10:29:54;;;;;;;53.08;30.33;;;13.60;99.90;;;;;;4879931;29;20038;-85
2022/10/15 10:32:23;;;;;;;59.47;30.08;;;13.40;99.90;;;;;;4879786;29;20208;-85
2022/10/15 10:34:51;;;;;;;47.50;26.67;;;13.60;99.90;;;;;;4878426;29;20059;-86
2022/10/15 10:37:17;;;;;;;42.55;25.13;;;13.60;99.90;;;;;;4895073;29;20547;-84
2022/10/15 10:39:44;;;;;;;42.53;26.10;;;13.60;99.90;;;;;;4879903;29;20059;-85
2022/10/15 10:42:17;;;;;;;42.45;24.70;;;13.70;99.90;;;;;;4879345;29;20055;-85
2022/10/15 10:44:45;;;;;;;52.65;26.90;;;13.70;99.90;;;;;;4894689;29;20071;-86
2022/10/15 10:47:15;;;;;;;43.03;25.17;;;13.70;99.90;;;;;;4875335;29;20059;-85
2022/10/15 10:49:50;;;;;;;43.03;24.63;;;13.80;99.90;;;;;;4872997;29;20056;-91
2022/10/15 10:52:19;;;;;;;42.15;24.73;;;13.70;99.90;;;;;;4873157;29;20049;-86
2022/10/15 10:54:46;;;;;;;39.15;23.70;;;13.70;99.90;;;;;;4873071;29;20053;-85
2022/10/15 10:57:16;;;;;;;41.47;23.70;;;13.90;99.90;;;;;;4888606;29;20073;-85
2022/10/15 10:59:50;;;;;;;33.92;21.60;;;13.90;99.90;;;;;;4888388;29;20051;-85
2022/10/15 11:02:16;;;;;;;34.13;21.10;;;14.10;99.90;;;;;;4857045;29;20067;-85
2022/10/15 11:04:42;;;;;;;33.63;19.85;;;14.10;99.90;;;;;;4858004;29;20052;-85
2022/10/15 11:07:45;;;;;;;32.60;19.42;;;14.20;99.90;;;;;;4887171;29;20076;-84
2022/10/15 11:10:21;;;;;;;29.00;19.15;;;14.30;99.90;;;;;;4888325;29;20064;-85
2022/10/15 11:13:05;;;;;;;29.40;18.50;;;14.40;99.90;;;;;;4872485;29;20169;-84
2022/10/15 11:15:37;;;;;;;27.15;18.85;;;14.50;99.90;;;;;;4888480;29;20584;-85
2022/10/15 11:18:12;;;;;;;33.65;20.02;;;14.50;99.90;;;;;;4872448;29;20041;-85
2022/10/15 11:20:46;;;;;;;26.52;17.13;;;14.50;99.90;;;;;;4872169;29;20052;-84
2022/10/15 11:23:27;;;;;;;22.98;17.13;;;14.50;99.90;;;;;;4888189;29;20113;-85
2022/10/15 11:26:01;;;;;;;23.77;16.52;;;14.50;99.90;;;;;;4888258;29;20057;-83
2022/10/15 11:29:10;;;;;;;27.65;18.13;;;14.70;99.90;;;;;;4887891;29;20060;-83
2022/10/15 11:32:04;;;;;;;22.25;16.02;;;14.80;99.90;;;;;;4856717;29;20057;-85
2022/10/15 11:34:41;;;;;;;;;;;14.90;99.90;;;;;;4856877;29;20467;-85
2022/10/15 11:37:13;;;;;;;24.10;16.85;;;15.00;99.90;;;;;;4871230;29;19927;-85
2022/10/15 11:39:54;;;;;;;22.25;16.45;;;15.10;99.90;;;;;;4871677;29;20053;-85
2022/10/15 11:42:27;;;;;;;25.33;16.55;;;15.20;99.90;;;;;;4856263;29;20057;-84
2022/10/15 11:45:05;;;;;;;24.90;16.40;;;15.20;99.90;;;;;;4855280;29;20166;-85
2022/10/15 11:47:37;;;;;;;27.27;17.92;;;15.20;99.90;;;;;;4872008;29;20049;-85
2022/10/15 11:50:03;;;;;;;22.27;17.07;;;15.10;99.90;;;;;;4870598;29;20398;-85
2022/10/15 11:52:30;;;;;;;22.90;16.38;;;15.20;99.90;;;;;;4855886;29;20057;-85
2022/10/15 11:55:12;;;;;;;23.35;16.40;;;15.10;99.90;;;;;;4855091;29;20051;-84
2022/10/15 11:57:40;;;;;;;22.63;16.77;;;15.00;99.90;;;;;;4855858;29;20525;-84
2022/10/15 12:00:12;;;;;;;23.33;16.80;;;15.00;99.90;;;;;;4856074;29;20140;-84
2022/10/15 12:02:38;;;;;;;25.15;16.88;;;15.10;99.90;;;;;;4856140;29;20136;-87
2022/10/15 12:05:08;;;;;;;23.40;16.60;;;15.10;99.90;;;;;;4840075;29;20514;-86
2022/10/15 12:07:40;;;;;;;25.75;15.65;;;15.20;99.90;;;;;;4856175;29;20052;-86
2022/10/15 12:10:11;;;;;;;20.23;15.35;;;15.40;99.90;;;;;;4855894;29;20068;-87
2022/10/15 12:12:42;;;;;;;20.98;14.60;;;15.40;99.90;;;;;;4856510;29;20185;-87
2022/10/15 12:15:27;;;;;;;25.88;15.25;;;15.40;99.90;;;;;;4855929;29;20049;-88
2022/10/15 12:18:16;;;;;;;19.25;14.40;;;15.40;99.90;;;;;;4855305;29;20049;-86
2022/10/15 12:20:43;;;;;;;19.95;14.60;;;15.40;99.90;;;;;;4871675;29;20464;-86
2022/10/15 12:23:22;;;;;;;20.13;14.25;;;15.40;99.90;;;;;;4874707;29;20083;-86
2022/10/15 12:25:48;;;;;;;19.92;14.18;;;15.40;99.90;;;;;;4876882;29;20052;-86
2022/10/15 12:28:17;;;;;;;19.48;14.63;;;15.60;99.90;;;;;;4877670;29;20045;-86
2022/10/15 12:30:57;;;;;;;20.13;13.85;;;15.50;99.90;;;;;;4878023;29;20126;-86
2022/10/15 12:33:32;;;;;;;20.95;13.10;;;15.50;99.90;;;;;;4862580;29;20052;-87
2022/10/15 12:36:08;;;;;;;17.85;13.57;;;15.60;99.90;;;;;;4876928;29;20135;-87
2022/10/15 12:38:37;;;;;;;18.13;13.45;;;15.50;99.90;;;;;;4862125;29;20045;-87
2022/10/15 12:41:08;;;;;;;20.17;13.43;;;15.50;99.90;;;;;;4892737;29;20100;-86
2022/10/15 12:43:43;;;;;;;17.48;12.85;;;15.50;99.90;;;;;;4862294;29;20044;-86
2022/10/15 12:46:10;;;;;;;21.30;13.75;;;15.50;99.90;;;;;;4877997;29;20056;-87
2022/10/15 12:48:38;;;;;;;19.00;14.60;;;15.40;99.90;;;;;;4861652;29;20056;-86
2022/10/15 12:51:21;;;;;;;18.77;14.32;;;15.40;99.90;;;;;;4876774;29;20113;-87
2022/10/15 12:53:48;;;;;;;18.40;13.95;;;15.30;99.90;;;;;;4877325;29;20064;-86
2022/10/15 12:56:14;;;;;;;21.90;14.80;;;15.40;99.90;;;;;;4877246;29;20401;-86
2022/10/15 12:58:43;;;;;;;17.98;14.38;;;15.30;99.90;;;;;;4877479;29;20048;-86
2022/10/15 13:01:13;;;;;;;21.30;15.00;;;15.30;99.90;;;;;;4876724;29;20489;-86
2022/10/15 13:03:47;;;;;;;21.98;16.23;;;15.20;99.90;;;;;;4877949;29;20052;-87
2022/10/15 13:06:21;;;;;;;26.23;16.52;;;15.20;99.90;;;;;;4877411;29;20055;-88
2022/10/15 13:08:55;;;;;;;25.38;16.67;;;15.10;99.90;;;;;;4877914;29;20063;-88
2022/10/15 13:11:28;;;;;;;26.88;16.67;;;15.10;99.90;;;;;;4878562;29;20468;-88
2022/10/15 13:23:17;;;;;;;30.98;19.45;;;15.10;99.90;;;;;;4845775;29;20100;-89
2022/10/15 13:28:51;;;;;;;32.75;19.40;;;15.10;99.90;;;;;;5010377;23;20537;-89
2022/10/15 13:31:45;;;;;;;30.50;19.38;;;15.10;99.90;;;;;;4863640;29;20056;-89
2022/10/15 13:34:44;;;;;;;30.73;20.48;;;14.90;99.90;;;;;;4901412;29;20083;-87
2022/10/15 13:38:04;;;;;;;33.20;19.42;;;15.10;99.90;;;;;;4898569;29;20058;-88
2022/10/15 13:41:01;;;;;;;33.72;20.42;;;15.40;99.90;;;;;;4857138;23;20036;-88
2022/10/15 13:43:45;;;;;;;28.17;17.88;;;15.10;99.90;;;;;;4898136;29;20052;-87
2022/10/15 13:46:31;;;;;;;25.73;17.42;;;15.10;99.90;;;;;;4860191;29;20494;-87
2022/10/15 13:49:08;;;;;;;29.25;17.98;;;15.10;99.90;;;;;;4861587;29;20041;-88
2022/10/15 13:51:59;;;;;;;29.92;18.42;;;15.10;99.90;;;;;;4861045;29;20053;-88
2022/10/15 13:54:30;;;;;;;29.50;18.75;;;15.20;99.90;;;;;;4861624;29;20108;-88
2022/10/15 13:57:10;;;;;;;28.48;18.10;;;15.10;99.90;;;;;;4861208;29;20069;-88
2022/10/15 13:59:36;;;;;;;32.33;19.80;;;15.10;99.90;;;;;;4861422;29;20406;-89
2022/10/15 14:02:03;;;;;;;33.08;18.38;;;15.10;99.90;;;;;;4861424;29;20056;-89
2022/10/15 14:04:31;;;;;;;29.10;18.23;;;15.10;99.90;;;;;;4861252;29;20056;-88
2022/10/15 14:07:01;;;;;;;27.27;16.73;;;15.10;99.90;;;;;;4860293;29;20494;-89
2022/10/15 14:09:37;;;;;;;28.08;16.70;;;15.00;99.90;;;;;;4859938;29;20111;-88
2022/10/15 14:22:51;;;;;;;28.50;17.08;;;14.80;99.90;;;;;;5055478;23;20230;-88
2022/10/15 14:25:35;;;;;;;27.90;16.85;;;14.60;99.90;;;;;;4879178;29;20130;-89
2022/10/15 14:28:01;;;;;;;34.55;17.90;;;14.80;99.90;;;;;;4881979;29;20052;-88
2022/10/15 14:30:32;;;;;;;30.10;17.58;;;14.80;99.90;;;;;;4898266;29;20048;-88
2022/10/15 14:33:04;;;;;;;28.98;17.30;;;14.70;99.90;;;;;;4882495;29;20381;-88
2022/10/15 14:35:36;;;;;;;27.08;16.42;;;14.90;99.90;;;;;;4897716;29;20066;-89
2022/10/15 14:38:15;;;;;;;28.65;16.23;;;14.70;99.90;;;;;;4897493;29;20055;-88
2022/10/15 14:41:02;;;;;;;23.98;15.48;;;14.70;99.90;;;;;;4896851;29;20060;-87
2022/10/15 14:43:32;;;;;;;27.30;15.45;;;14.80;99.90;;;;;;4881818;29;20059;-88
2022/10/15 14:46:23;;;;;;;24.08;15.30;;;14.70;99.90;;;;;;4881570;29;20052;-90
2022/10/15 14:48:49;;;;;;;24.13;14.73;;;14.80;99.90;;;;;;4880801;29;20090;-87